sensor_id;sensor_type;location;lat;lon;timestamp;P1;durP1;ratioP1;P2;durP2;ratioP2
56271;SDS011;42177;48.914;18.160;2023-03-21T00:01:35;38.8;;;28.9;;
56271;SDS011;42177;48.914;18.160;2023-03-21T00:06:35;38.8;;;28.9;;
56271;SDS011;42177;48.914;18.160;2023-03-21T00:11:35;36.5;;;27.2;;
56271;SDS011;42177;48.914;18.160;2023-03-21T00:16:35;36.5;;;27.2;;
56271;SDS011;42177;48.914;18.160;2023-03-21T00:21:35;39.3;;;27.4;;
56271;SDS011;42177;48.914;18.160;2023-03-21T00:26:35;39.3;;;27.4;;
56271;SDS011;42177;48.914;18.160;2023-03-21T00:31:35;34.6;;;24.8;;
56271;SDS011;42177;48.914;18.160;2023-03-21T00:36:35;34.6;;;24.8;;
56271;SDS011;42177;48.914;18.160;2023-03-21T00:41:35;38.3;;;28.1;;
56271;SDS011;42177;48.914;18.160;2023-03-21T00:46:35;38.3;;;28.1;;
56271;SDS011;42177;48.914;18.160;2023-03-21T00:51:35;35.7;;;26;;
56271;SDS011;42177;48.914;18.160;2023-03-21T00:56:35;35.7;;;26;;
56271;SDS011;42177;48.914;18.160;2023-03-21T01:01:35;32;;;23.6;;
56271;SDS011;42177;48.914;18.160;2023-03-21T01:06:36;32;;;23.6;;
56271;SDS011;42177;48.914;18.160;2023-03-21T01:11:35;26.3;;;19.5;;
56271;SDS011;42177;48.914;18.160;2023-03-21T01:16:35;26.3;;;19.5;;
56271;SDS011;42177;48.914;18.160;2023-03-21T01:21:35;28.7;;;20.3;;
56271;SDS011;42177;48.914;18.160;2023-03-21T01:26:35;28.7;;;20.3;;
56271;SDS011;42177;48.914;18.160;2023-03-21T01:31:35;24.6;;;18.5;;
56271;SDS011;42177;48.914;18.160;2023-03-21T01:36:35;24.6;;;18.5;;
56271;SDS011;42177;48.914;18.160;2023-03-21T01:41:36;25.5;;;18.6;;
56271;SDS011;42177;48.914;18.160;2023-03-21T01:46:37;25.5;;;18.6;;
56271;SDS011;42177;48.914;18.160;2023-03-21T01:51:37;25.3;;;17.2;;
56271;SDS011;42177;48.914;18.160;2023-03-21T01:56:36;25.3;;;17.2;;
56271;SDS011;42177;48.914;18.160;2023-03-21T02:01:35;24.7;;;18.9;;
56271;SDS011;42177;48.914;18.160;2023-03-21T02:06:37;24.7;;;18.9;;
56271;SDS011;42177;48.914;18.160;2023-03-21T02:11:35;22.9;;;16.5;;
56271;SDS011;42177;48.914;18.160;2023-03-21T02:16:37;22.9;;;16.5;;
56271;SDS011;42177;48.914;18.160;2023-03-21T02:21:54;22.4;;;16;;
56271;SDS011;42177;48.914;18.160;2023-03-21T02:26:38;22.4;;;16;;
56271;SDS011;42177;48.914;18.160;2023-03-21T02:31:38;19.5;;;14.8;;
56271;SDS011;42177;48.914;18.160;2023-03-21T02:36:54;19.5;;;14.8;;
56271;SDS011;42177;48.914;18.160;2023-03-21T02:41:36;18.3;;;13.9;;
56271;SDS011;42177;48.914;18.160;2023-03-21T02:46:36;18.3;;;13.9;;
56271;SDS011;42177;48.914;18.160;2023-03-21T02:51:35;17.6;;;13.3;;
56271;SDS011;42177;48.914;18.160;2023-03-21T02:56:35;17.6;;;13.3;;
56271;SDS011;42177;48.914;18.160;2023-03-21T03:01:35;18.8;;;13.4;;
56271;SDS011;42177;48.914;18.160;2023-03-21T03:06:36;18.8;;;13.4;;
56271;SDS011;42177;48.914;18.160;2023-03-21T03:11:35;17.3;;;12.5;;
56271;SDS011;42177;48.914;18.160;2023-03-21T03:16:37;17.3;;;12.5;;
56271;SDS011;42177;48.914;18.160;2023-03-21T03:21:36;15.6;;;11.8;;
56271;SDS011;42177;48.914;18.160;2023-03-21T03:26:36;15.6;;;11.8;;
56271;SDS011;42177;48.914;18.160;2023-03-21T03:31:37;17;;;11.9;;
56271;SDS011;42177;48.914;18.160;2023-03-21T03:36:36;17;;;11.9;;
56271;SDS011;42177;48.914;18.160;2023-03-21T03:41:37;19.1;;;12;;
56271;SDS011;42177;48.914;18.160;2023-03-21T03:46:37;19.1;;;12;;
56271;SDS011;42177;48.914;18.160;2023-03-21T03:51:36;16.5;;;12;;
56271;SDS011;42177;48.914;18.160;2023-03-21T03:56:35;16.5;;;12;;
56271;SDS011;42177;48.914;18.160;2023-03-21T04:01:35;17.5;;;12.1;;
56271;SDS011;42177;48.914;18.160;2023-03-21T04:06:35;17.5;;;12.1;;
56271;SDS011;42177;48.914;18.160;2023-03-21T04:11:35;18.2;;;12.3;;
56271;SDS011;42177;48.914;18.160;2023-03-21T04:16:35;18.2;;;12.3;;
56271;SDS011;42177;48.914;18.160;2023-03-21T04:21:35;17.5;;;11;;
56271;SDS011;42177;48.914;18.160;2023-03-21T04:26:35;17.5;;;11;;
56271;SDS011;42177;48.914;18.160;2023-03-21T04:31:35;13.1;;;9.8;;
56271;SDS011;42177;48.914;18.160;2023-03-21T04:36:35;13.1;;;9.8;;
56271;SDS011;42177;48.914;18.160;2023-03-21T04:41:35;13;;;10.4;;
56271;SDS011;42177;48.914;18.160;2023-03-21T04:46:35;13;;;10.4;;
56271;SDS011;42177;48.914;18.160;2023-03-21T04:51:35;18.1;;;10.4;;
56271;SDS011;42177;48.914;18.160;2023-03-21T04:56:35;18.1;;;10.4;;
56271;SDS011;42177;48.914;18.160;2023-03-21T05:01:35;17.2;;;12.1;;
56271;SDS011;42177;48.914;18.160;2023-03-21T05:06:35;17.2;;;12.1;;
56271;SDS011;42177;48.914;18.160;2023-03-21T05:11:36;14;;;11.1;;
56271;SDS011;42177;48.914;18.160;2023-03-21T05:16:35;14;;;11.1;;
56271;SDS011;42177;48.914;18.160;2023-03-21T05:21:35;14.1;;;10.4;;
56271;SDS011;42177;48.914;18.160;2023-03-21T05:26:35;14.1;;;10.4;;
56271;SDS011;42177;48.914;18.160;2023-03-21T05:31:35;12.8;;;10.6;;
56271;SDS011;42177;48.914;18.160;2023-03-21T05:36:35;12.8;;;10.6;;
56271;SDS011;42177;48.914;18.160;2023-03-21T05:41:35;14.8;;;10.5;;
56271;SDS011;42177;48.914;18.160;2023-03-21T05:46:35;14.8;;;10.5;;
56271;SDS011;42177;48.914;18.160;2023-03-21T05:51:35;18.6;;;14.3;;
56271;SDS011;42177;48.914;18.160;2023-03-21T05:56:35;18.6;;;14.3;;
56271;SDS011;42177;48.914;18.160;2023-03-21T06:01:35;16.5;;;10.2;;
56271;SDS011;42177;48.914;18.160;2023-03-21T06:06:35;16.5;;;10.2;;
56271;SDS011;42177;48.914;18.160;2023-03-21T06:11:36;15.6;;;10.4;;
56271;SDS011;42177;48.914;18.160;2023-03-21T06:16:35;15.6;;;10.4;;
56271;SDS011;42177;48.914;18.160;2023-03-21T06:21:35;16.6;;;10.6;;
56271;SDS011;42177;48.914;18.160;2023-03-21T06:26:35;16.6;;;10.6;;
56271;SDS011;42177;48.914;18.160;2023-03-21T06:31:35;15.5;;;10.7;;
56271;SDS011;42177;48.914;18.160;2023-03-21T06:36:35;15.5;;;10.7;;
56271;SDS011;42177;48.914;18.160;2023-03-21T06:41:35;13.3;;;10.2;;
56271;SDS011;42177;48.914;18.160;2023-03-21T06:46:35;13.3;;;10.2;;
56271;SDS011;42177;48.914;18.160;2023-03-21T06:51:35;16.9;;;10.6;;
56271;SDS011;42177;48.914;18.160;2023-03-21T06:56:35;16.9;;;10.6;;
56271;SDS011;42177;48.914;18.160;2023-03-21T07:01:35;16.8;;;11;;
56271;SDS011;42177;48.914;18.160;2023-03-21T07:06:35;16.8;;;11;;
56271;SDS011;42177;48.914;18.160;2023-03-21T07:11:35;74.9;;;53.7;;
56271;SDS011;42177;48.914;18.160;2023-03-21T07:16:35;74.9;;;53.7;;
56271;SDS011;42177;48.914;18.160;2023-03-21T07:21:35;13.5;;;10;;
56271;SDS011;42177;48.914;18.160;2023-03-21T07:26:35;13.5;;;10;;
56271;SDS011;42177;48.914;18.160;2023-03-21T07:31:35;56.8;;;42.3;;
56271;SDS011;42177;48.914;18.160;2023-03-21T07:36:35;56.8;;;42.3;;
56271;SDS011;42177;48.914;18.160;2023-03-21T07:41:35;10.6;;;9.1;;
56271;SDS011;42177;48.914;18.160;2023-03-21T07:46:35;10.6;;;9.1;;
56271;SDS011;42177;48.914;18.160;2023-03-21T07:51:35;11;;;9.3;;
56271;SDS011;42177;48.914;18.160;2023-03-21T07:56:35;11;;;9.3;;
56271;SDS011;42177;48.914;18.160;2023-03-21T08:01:35;11.6;;;9.4;;
56271;SDS011;42177;48.914;18.160;2023-03-21T08:06:35;11.6;;;9.4;;
56271;SDS011;42177;48.914;18.160;2023-03-21T08:11:35;11.5;;;9;;
56271;SDS011;42177;48.914;18.160;2023-03-21T08:16:35;11.5;;;9;;
56271;SDS011;42177;48.914;18.160;2023-03-21T08:21:35;11.5;;;8.5;;
56271;SDS011;42177;48.914;18.160;2023-03-21T08:26:35;11.5;;;8.5;;
56271;SDS011;42177;48.914;18.160;2023-03-21T08:31:35;10.5;;;9.4;;
56271;SDS011;42177;48.914;18.160;2023-03-21T08:36:35;10.5;;;9.4;;
56271;SDS011;42177;48.914;18.160;2023-03-21T08:41:36;10.2;;;8.1;;
56271;SDS011;42177;48.914;18.160;2023-03-21T08:46:35;10.2;;;8.1;;
56271;SDS011;42177;48.914;18.160;2023-03-21T08:51:35;8.3;;;7.3;;
56271;SDS011;42177;48.914;18.160;2023-03-21T08:56:35;8.3;;;7.3;;
56271;SDS011;42177;48.914;18.160;2023-03-21T09:01:35;8.1;;;7.1;;
56271;SDS011;42177;48.914;18.160;2023-03-21T09:06:35;8.1;;;7.1;;
56271;SDS011;42177;48.914;18.160;2023-03-21T09:11:35;9.7;;;7.6;;
56271;SDS011;42177;48.914;18.160;2023-03-21T09:16:35;9.7;;;7.6;;
56271;SDS011;42177;48.914;18.160;2023-03-21T09:21:35;7.6;;;6.8;;
56271;SDS011;42177;48.914;18.160;2023-03-21T09:26:35;7.6;;;6.8;;
56271;SDS011;42177;48.914;18.160;2023-03-21T09:31:35;10;;;6.9;;
56271;SDS011;42177;48.914;18.160;2023-03-21T09:36:35;10;;;6.9;;
56271;SDS011;42177;48.914;18.160;2023-03-21T09:41:39;6.9;;;5.7;;
56271;SDS011;42177;48.914;18.160;2023-03-21T09:46:35;6.9;;;5.7;;
56271;SDS011;42177;48.914;18.160;2023-03-21T09:51:35;7;;;6;;
56271;SDS011;42177;48.914;18.160;2023-03-21T09:56:35;7;;;6;;
56271;SDS011;42177;48.914;18.160;2023-03-21T10:01:35;8;;;6.5;;
56271;SDS011;42177;48.914;18.160;2023-03-21T10:06:36;8;;;6.5;;
56271;SDS011;42177;48.914;18.160;2023-03-21T10:11:38;7.9;;;7.1;;
56271;SDS011;42177;48.914;18.160;2023-03-21T10:16:36;7.9;;;7.1;;
56271;SDS011;42177;48.914;18.160;2023-03-21T10:21:36;6.7;;;5.9;;
56271;SDS011;42177;48.914;18.160;2023-03-21T10:26:35;6.7;;;5.9;;
56271;SDS011;42177;48.914;18.160;2023-03-21T10:31:35;7.5;;;5.9;;
56271;SDS011;42177;48.914;18.160;2023-03-21T10:36:35;7.5;;;5.9;;
56271;SDS011;42177;48.914;18.160;2023-03-21T10:41:35;7;;;5.4;;
56271;SDS011;42177;48.914;18.160;2023-03-21T10:46:35;7;;;5.4;;
56271;SDS011;42177;48.914;18.160;2023-03-21T10:51:35;9;;;6;;
56271;SDS011;42177;48.914;18.160;2023-03-21T10:56:36;9;;;6;;
56271;SDS011;42177;48.914;18.160;2023-03-21T11:01:36;10.8;;;6.1;;
56271;SDS011;42177;48.914;18.160;2023-03-21T11:06:36;10.8;;;6.1;;
56271;SDS011;42177;48.914;18.160;2023-03-21T11:11:36;8;;;5.5;;
56271;SDS011;42177;48.914;18.160;2023-03-21T11:16:36;8;;;5.5;;
56271;SDS011;42177;48.914;18.160;2023-03-21T11:21:35;10.4;;;6.7;;
56271;SDS011;42177;48.914;18.160;2023-03-21T11:26:35;10.4;;;6.7;;
56271;SDS011;42177;48.914;18.160;2023-03-21T11:31:36;5.8;;;5.2;;
56271;SDS011;42177;48.914;18.160;2023-03-21T11:36:36;5.8;;;5.2;;
56271;SDS011;42177;48.914;18.160;2023-03-21T11:41:35;6.4;;;4.8;;
56271;SDS011;42177;48.914;18.160;2023-03-21T11:46:38;6.4;;;4.8;;
56271;SDS011;42177;48.914;18.160;2023-03-21T11:51:37;7.8;;;5.4;;
56271;SDS011;42177;48.914;18.160;2023-03-21T11:56:36;7.8;;;5.4;;
56271;SDS011;42177;48.914;18.160;2023-03-21T12:01:36;9.2;;;6;;
56271;SDS011;42177;48.914;18.160;2023-03-21T12:06:36;9.2;;;6;;
56271;SDS011;42177;48.914;18.160;2023-03-21T12:11:37;6.3;;;4.9;;
56271;SDS011;42177;48.914;18.160;2023-03-21T12:16:39;6.3;;;4.9;;
56271;SDS011;42177;48.914;18.160;2023-03-21T12:21:37;6.1;;;5;;
56271;SDS011;42177;48.914;18.160;2023-03-21T12:26:37;6.1;;;5;;
56271;SDS011;42177;48.914;18.160;2023-03-21T12:31:38;6.6;;;5.1;;
56271;SDS011;42177;48.914;18.160;2023-03-21T12:36:38;6.6;;;5.1;;
56271;SDS011;42177;48.914;18.160;2023-03-21T12:41:37;7.5;;;5.4;;
56271;SDS011;42177;48.914;18.160;2023-03-21T12:46:36;7.5;;;5.4;;
56271;SDS011;42177;48.914;18.160;2023-03-21T12:51:35;8;;;6.1;;
56271;SDS011;42177;48.914;18.160;2023-03-21T12:56:37;8;;;6.1;;
56271;SDS011;42177;48.914;18.160;2023-03-21T13:01:35;6.9;;;5.9;;
56271;SDS011;42177;48.914;18.160;2023-03-21T13:06:35;6.9;;;5.9;;
56271;SDS011;42177;48.914;18.160;2023-03-21T13:11:35;6.8;;;5.8;;
56271;SDS011;42177;48.914;18.160;2023-03-21T13:16:36;6.8;;;5.8;;
56271;SDS011;42177;48.914;18.160;2023-03-21T13:21:38;8.9;;;6.1;;
56271;SDS011;42177;48.914;18.160;2023-03-21T13:26:36;8.9;;;6.1;;
56271;SDS011;42177;48.914;18.160;2023-03-21T13:31:35;6.6;;;5;;
56271;SDS011;42177;48.914;18.160;2023-03-21T13:36:35;6.6;;;5;;
56271;SDS011;42177;48.914;18.160;2023-03-21T13:41:38;6.8;;;4.7;;
56271;SDS011;42177;48.914;18.160;2023-03-21T13:46:35;6.8;;;4.7;;
56271;SDS011;42177;48.914;18.160;2023-03-21T13:51:38;8.1;;;5.8;;
56271;SDS011;42177;48.914;18.160;2023-03-21T13:56:47;8.1;;;5.8;;
56271;SDS011;42177;48.914;18.160;2023-03-21T14:01:37;8.7;;;5;;
56271;SDS011;42177;48.914;18.160;2023-03-21T14:06:37;8.7;;;5;;
56271;SDS011;42177;48.914;18.160;2023-03-21T14:11:35;11.2;;;5.6;;
56271;SDS011;42177;48.914;18.160;2023-03-21T14:16:35;11.2;;;5.6;;
56271;SDS011;42177;48.914;18.160;2023-03-21T14:21:35;9.4;;;5.3;;
56271;SDS011;42177;48.914;18.160;2023-03-21T14:26:36;9.4;;;5.3;;
56271;SDS011;42177;48.914;18.160;2023-03-21T14:31:35;8.6;;;4.6;;
56271;SDS011;42177;48.914;18.160;2023-03-21T14:36:37;8.6;;;4.6;;
56271;SDS011;42177;48.914;18.160;2023-03-21T14:41:43;4.7;;;4;;
56271;SDS011;42177;48.914;18.160;2023-03-21T14:46:35;4.7;;;4;;
56271;SDS011;42177;48.914;18.160;2023-03-21T14:51:35;5.2;;;3.9;;
56271;SDS011;42177;48.914;18.160;2023-03-21T14:56:35;5.2;;;3.9;;
56271;SDS011;42177;48.914;18.160;2023-03-21T15:01:35;4.6;;;3.5;;
56271;SDS011;42177;48.914;18.160;2023-03-21T15:06:47;4.6;;;3.5;;
56271;SDS011;42177;48.914;18.160;2023-03-21T15:11:36;4.4;;;3.6;;
56271;SDS011;42177;48.914;18.160;2023-03-21T15:16:35;4.4;;;3.6;;
56271;SDS011;42177;48.914;18.160;2023-03-21T15:21:36;5;;;4.1;;
56271;SDS011;42177;48.914;18.160;2023-03-21T15:26:35;5;;;4.1;;
56271;SDS011;42177;48.914;18.160;2023-03-21T15:31:35;10.5;;;4.3;;
56271;SDS011;42177;48.914;18.160;2023-03-21T15:36:36;10.5;;;4.3;;
56271;SDS011;42177;48.914;18.160;2023-03-21T15:41:35;11.7;;;5;;
56271;SDS011;42177;48.914;18.160;2023-03-21T15:46:39;11.7;;;5;;
56271;SDS011;42177;48.914;18.160;2023-03-21T15:51:35;5.7;;;4.4;;
56271;SDS011;42177;48.914;18.160;2023-03-21T15:56:35;5.7;;;4.4;;
56271;SDS011;42177;48.914;18.160;2023-03-21T16:01:35;9.1;;;6.1;;
56271;SDS011;42177;48.914;18.160;2023-03-21T16:06:36;9.1;;;6.1;;
56271;SDS011;42177;48.914;18.160;2023-03-21T16:11:36;5.6;;;4.8;;
56271;SDS011;42177;48.914;18.160;2023-03-21T16:16:35;5.6;;;4.8;;
56271;SDS011;42177;48.914;18.160;2023-03-21T16:21:35;7.4;;;5;;
56271;SDS011;42177;48.914;18.160;2023-03-21T16:26:36;7.4;;;5;;
56271;SDS011;42177;48.914;18.160;2023-03-21T16:31:35;7.1;;;5;;
56271;SDS011;42177;48.914;18.160;2023-03-21T16:36:36;7.1;;;5;;
56271;SDS011;42177;48.914;18.160;2023-03-21T16:41:35;8;;;4.7;;
56271;SDS011;42177;48.914;18.160;2023-03-21T16:46:35;8;;;4.7;;
56271;SDS011;42177;48.914;18.160;2023-03-21T16:51:35;7.9;;;4;;
56271;SDS011;42177;48.914;18.160;2023-03-21T16:56:36;7.9;;;4;;
56271;SDS011;42177;48.914;18.160;2023-03-21T17:01:35;6.8;;;4.5;;
56271;SDS011;42177;48.914;18.160;2023-03-21T17:06:36;6.8;;;4.5;;
56271;SDS011;42177;48.914;18.160;2023-03-21T17:11:35;5.7;;;4;;
56271;SDS011;42177;48.914;18.160;2023-03-21T17:16:35;5.7;;;4;;
56271;SDS011;42177;48.914;18.160;2023-03-21T17:21:35;9.2;;;4.8;;
56271;SDS011;42177;48.914;18.160;2023-03-21T17:26:35;9.2;;;4.8;;
56271;SDS011;42177;48.914;18.160;2023-03-21T17:31:35;11.7;;;5.5;;
56271;SDS011;42177;48.914;18.160;2023-03-21T17:36:36;11.7;;;5.5;;
56271;SDS011;42177;48.914;18.160;2023-03-21T17:41:35;10.8;;;7.3;;
56271;SDS011;42177;48.914;18.160;2023-03-21T17:46:35;10.8;;;7.3;;
56271;SDS011;42177;48.914;18.160;2023-03-21T17:51:35;8.3;;;6.2;;
56271;SDS011;42177;48.914;18.160;2023-03-21T17:56:35;8.3;;;6.2;;
56271;SDS011;42177;48.914;18.160;2023-03-21T18:01:35;11.7;;;6.1;;
56271;SDS011;42177;48.914;18.160;2023-03-21T18:06:35;11.7;;;6.1;;
56271;SDS011;42177;48.914;18.160;2023-03-21T18:11:35;10.5;;;6.5;;
56271;SDS011;42177;48.914;18.160;2023-03-21T18:16:35;10.5;;;6.5;;
56271;SDS011;42177;48.914;18.160;2023-03-21T18:21:35;15;;;7.2;;
56271;SDS011;42177;48.914;18.160;2023-03-21T18:26:35;15;;;7.2;;
56271;SDS011;42177;48.914;18.160;2023-03-21T18:31:35;11.1;;;7.4;;
56271;SDS011;42177;48.914;18.160;2023-03-21T18:36:35;11.1;;;7.4;;
56271;SDS011;42177;48.914;18.160;2023-03-21T18:41:35;14.6;;;11.3;;
56271;SDS011;42177;48.914;18.160;2023-03-21T18:46:35;14.6;;;11.3;;
56271;SDS011;42177;48.914;18.160;2023-03-21T18:51:35;20.2;;;14.5;;
56271;SDS011;42177;48.914;18.160;2023-03-21T18:56:35;20.2;;;14.5;;
56271;SDS011;42177;48.914;18.160;2023-03-21T19:01:35;24;;;18;;
56271;SDS011;42177;48.914;18.160;2023-03-21T19:06:35;24;;;18;;
56271;SDS011;42177;48.914;18.160;2023-03-21T19:11:35;27.2;;;19.8;;
56271;SDS011;42177;48.914;18.160;2023-03-21T19:16:35;27.2;;;19.8;;
56271;SDS011;42177;48.914;18.160;2023-03-21T19:21:35;26.5;;;20.8;;
56271;SDS011;42177;48.914;18.160;2023-03-21T19:26:35;26.5;;;20.8;;
56271;SDS011;42177;48.914;18.160;2023-03-21T19:31:35;27.1;;;20;;
56271;SDS011;42177;48.914;18.160;2023-03-21T19:36:35;27.1;;;20;;
56271;SDS011;42177;48.914;18.160;2023-03-21T19:41:35;26.8;;;21.2;;
56271;SDS011;42177;48.914;18.160;2023-03-21T19:46:35;26.8;;;21.2;;
56271;SDS011;42177;48.914;18.160;2023-03-21T19:51:35;28.9;;;23;;
56271;SDS011;42177;48.914;18.160;2023-03-21T19:56:35;28.9;;;23;;
56271;SDS011;42177;48.914;18.160;2023-03-21T20:01:35;24.2;;;17.8;;
56271;SDS011;42177;48.914;18.160;2023-03-21T20:06:35;24.2;;;17.8;;
56271;SDS011;42177;48.914;18.160;2023-03-21T20:11:35;21.7;;;16.2;;
56271;SDS011;42177;48.914;18.160;2023-03-21T20:16:35;21.7;;;16.2;;
56271;SDS011;42177;48.914;18.160;2023-03-21T20:21:35;21.2;;;17.4;;
56271;SDS011;42177;48.914;18.160;2023-03-21T20:26:35;21.2;;;17.4;;
56271;SDS011;42177;48.914;18.160;2023-03-21T20:31:35;23.1;;;17;;
56271;SDS011;42177;48.914;18.160;2023-03-21T20:36:35;23.1;;;17;;
56271;SDS011;42177;48.914;18.160;2023-03-21T20:41:35;77.5;;;55.3;;
56271;SDS011;42177;48.914;18.160;2023-03-21T20:46:35;77.5;;;55.3;;
56271;SDS011;42177;48.914;18.160;2023-03-21T20:51:35;25.4;;;17.8;;
56271;SDS011;42177;48.914;18.160;2023-03-21T20:56:35;25.4;;;17.8;;
56271;SDS011;42177;48.914;18.160;2023-03-21T21:01:35;26.4;;;18.8;;
56271;SDS011;42177;48.914;18.160;2023-03-21T21:06:35;26.4;;;18.8;;
56271;SDS011;42177;48.914;18.160;2023-03-21T21:11:35;26.1;;;19.6;;
56271;SDS011;42177;48.914;18.160;2023-03-21T21:16:35;26.1;;;19.6;;
56271;SDS011;42177;48.914;18.160;2023-03-21T21:21:35;25.4;;;20.4;;
56271;SDS011;42177;48.914;18.160;2023-03-21T21:26:35;25.4;;;20.4;;
56271;SDS011;42177;48.914;18.160;2023-03-21T21:31:35;30.6;;;22.4;;
56271;SDS011;42177;48.914;18.160;2023-03-21T21:36:35;30.6;;;22.4;;
56271;SDS011;42177;48.914;18.160;2023-03-21T21:41:35;23.7;;;18.4;;
56271;SDS011;42177;48.914;18.160;2023-03-21T21:46:35;23.7;;;18.4;;
56271;SDS011;42177;48.914;18.160;2023-03-21T21:51:35;31.1;;;22.8;;
56271;SDS011;42177;48.914;18.160;2023-03-21T21:56:35;31.1;;;22.8;;
56271;SDS011;42177;48.914;18.160;2023-03-21T22:01:35;27.7;;;20.8;;
56271;SDS011;42177;48.914;18.160;2023-03-21T22:06:35;27.7;;;20.8;;
56271;SDS011;42177;48.914;18.160;2023-03-21T22:11:35;27.3;;;20.9;;
56271;SDS011;42177;48.914;18.160;2023-03-21T22:16:35;27.3;;;20.9;;
56271;SDS011;42177;48.914;18.160;2023-03-21T22:21:35;27.3;;;20.7;;
56271;SDS011;42177;48.914;18.160;2023-03-21T22:26:35;27.3;;;20.7;;
56271;SDS011;42177;48.914;18.160;2023-03-21T22:31:35;30.4;;;21.1;;
56271;SDS011;42177;48.914;18.160;2023-03-21T22:36:35;30.4;;;21.1;;
56271;SDS011;42177;48.914;18.160;2023-03-21T22:41:35;23.5;;;18.4;;
56271;SDS011;42177;48.914;18.160;2023-03-21T22:46:35;23.5;;;18.4;;
56271;SDS011;42177;48.914;18.160;2023-03-21T22:51:35;24.1;;;18.4;;
56271;SDS011;42177;48.914;18.160;2023-03-21T22:56:35;24.1;;;18.4;;
56271;SDS011;42177;48.914;18.160;2023-03-21T23:01:35;24.2;;;18;;
56271;SDS011;42177;48.914;18.160;2023-03-21T23:06:35;24.2;;;18;;
56271;SDS011;42177;48.914;18.160;2023-03-21T23:11:35;25.3;;;17.4;;
56271;SDS011;42177;48.914;18.160;2023-03-21T23:16:35;25.3;;;17.4;;
56271;SDS011;42177;48.914;18.160;2023-03-21T23:21:35;20.6;;;15.8;;
56271;SDS011;42177;48.914;18.160;2023-03-21T23:26:35;20.6;;;15.8;;
56271;SDS011;42177;48.914;18.160;2023-03-21T23:31:35;24.5;;;17.7;;
56271;SDS011;42177;48.914;18.160;2023-03-21T23:36:35;24.5;;;17.7;;
56271;SDS011;42177;48.914;18.160;2023-03-21T23:41:35;24.5;;;18.6;;
56271;SDS011;42177;48.914;18.160;2023-03-21T23:46:35;24.5;;;18.6;;
56271;SDS011;42177;48.914;18.160;2023-03-21T23:51:35;22.1;;;17.2;;
56271;SDS011;42177;48.914;18.160;2023-03-21T23:56:35;22.1;;;17.2;;
